createdAt,value
2018-02-17T00:00:39.647Z,10.50
2018-02-17T00:03:13.508Z,10.80
2018-02-17T00:05:47.310Z,10.80
2018-02-17T00:08:21.106Z,9.70
2018-02-17T00:10:55.662Z,10.70
2018-02-17T00:13:29.313Z,11.37
2018-02-17T00:16:03.020Z,11.33
2018-02-17T00:18:38.282Z,11.80
2018-02-17T00:21:12.233Z,12.23
2018-02-17T00:23:45.892Z,11.00
2018-02-17T00:26:19.594Z,11.73
2018-02-17T00:28:53.128Z,11.20
2018-02-17T00:31:26.791Z,11.67
2018-02-17T00:34:00.513Z,11.50
2018-02-17T00:36:34.967Z,15.70
2018-02-17T00:39:08.656Z,12.60
2018-02-17T00:41:42.327Z,15.07
2018-02-17T00:44:15.973Z,12.23
2018-02-17T00:46:49.614Z,13.87
2018-02-17T00:49:24.195Z,15.97
2018-02-17T00:51:58.915Z,14.73
2018-02-17T00:54:32.509Z,14.40
2018-02-17T00:57:06.203Z,14.80
2018-02-17T00:59:39.899Z,13.20
2018-02-17T01:02:13.621Z,13.13
2018-02-17T01:04:48.948Z,13.37
2018-02-17T01:07:22.787Z,12.53
2018-02-17T01:09:56.499Z,12.90
2018-02-17T01:12:31.057Z,13.70
2018-02-17T01:15:05.028Z,13.43
2018-02-17T01:17:38.701Z,12.53
2018-02-17T01:20:13.357Z,13.70
2018-02-17T01:22:47.237Z,13.87
2018-02-17T01:25:22.516Z,14.90
2018-02-17T01:27:56.646Z,13.13
2018-02-17T01:30:31.231Z,13.57
2018-02-17T01:33:05.045Z,13.90
2018-02-17T01:35:38.621Z,12.30
2018-02-17T01:38:13.061Z,12.53
2018-02-17T01:40:46.809Z,13.03
2018-02-17T01:43:20.618Z,14.17
2018-02-17T01:45:54.325Z,14.07
2018-02-17T01:48:29.544Z,13.87
2018-02-17T01:51:03.524Z,15.37
2018-02-17T01:53:37.990Z,13.30
2018-02-17T01:56:11.896Z,13.87
2018-02-17T01:58:46.299Z,14.80
2018-02-17T02:01:20.187Z,14.70
2018-02-17T02:03:54.681Z,15.00
2018-02-17T02:06:28.339Z,12.97
2018-02-17T02:09:02.072Z,14.20
2018-02-17T02:11:35.721Z,13.90
2018-02-17T02:14:09.543Z,17.57
2018-02-17T02:16:43.449Z,16.30
2018-02-17T02:19:23.626Z,15.40
2018-02-17T02:21:58.682Z,15.93
2018-02-17T02:24:32.653Z,15.00
2018-02-17T02:27:06.283Z,15.13
2018-02-17T02:29:40.085Z,15.97
2018-02-17T02:32:14.087Z,16.20
2018-02-17T02:34:48.507Z,14.40
2018-02-17T02:37:22.630Z,15.80
2018-02-17T02:39:57.126Z,16.80
2018-02-17T02:42:30.966Z,16.67
2018-02-17T02:45:04.668Z,14.03
2018-02-17T02:47:38.472Z,16.03
2018-02-17T02:50:13.047Z,15.03
2018-02-17T02:52:46.930Z,14.93
2018-02-17T02:55:21.476Z,14.80
2018-02-17T02:57:55.051Z,15.37
2018-02-17T03:00:28.973Z,16.10
2018-02-17T03:03:02.497Z,16.50
2018-02-17T03:05:36.924Z,15.70
2018-02-17T03:08:11.472Z,16.83
2018-02-17T03:10:45.559Z,15.43
2018-02-17T03:13:19.334Z,15.10
2018-02-17T03:15:53.892Z,15.90
2018-02-17T03:18:27.709Z,17.10
2018-02-17T03:21:02.565Z,16.97
2018-02-17T03:23:37.127Z,16.00
2018-02-17T03:26:10.836Z,15.60
2018-02-17T03:28:45.183Z,16.07
2018-02-17T03:31:19.158Z,16.00
2018-02-17T03:33:53.018Z,16.10
2018-02-17T03:36:26.875Z,17.80
2018-02-17T03:39:02.044Z,16.80
2018-02-17T03:41:36.820Z,15.93
2018-02-17T03:44:11.424Z,15.17
2018-02-17T03:46:45.230Z,15.00
2018-02-17T03:49:18.886Z,15.60
2018-02-17T03:51:52.504Z,15.20
2018-02-17T03:54:26.996Z,16.07
2018-02-17T03:57:00.860Z,15.80
2018-02-17T03:59:34.712Z,16.07
2018-02-17T04:02:08.426Z,15.73
2018-02-17T04:04:42.179Z,15.70
2018-02-17T04:07:17.538Z,16.77
2018-02-17T04:09:51.416Z,16.67
2018-02-17T04:12:25.814Z,16.50
2018-02-17T04:14:59.999Z,16.70
2018-02-17T04:17:35.066Z,16.93
2018-02-17T04:20:09.143Z,16.70
2018-02-17T04:22:43.595Z,17.83
2018-02-17T04:25:17.245Z,18.03
2018-02-17T04:27:51.681Z,17.90
2018-02-17T04:30:25.321Z,16.37
2018-02-17T04:32:58.902Z,18.13
2018-02-17T04:35:33.229Z,16.23
2018-02-17T04:38:08.075Z,16.70
2018-02-17T04:40:47.302Z,16.17
2018-02-17T04:43:36.308Z,15.63
2018-02-17T04:46:16.766Z,16.70
2018-02-17T04:48:54.743Z,17.73
2018-02-17T04:54:41.112Z,17.70
2018-02-17T04:57:32.132Z,17.87
2018-02-17T05:00:06.702Z,17.63
2018-02-17T05:02:41.007Z,17.10
2018-02-17T05:08:36.712Z,17.17
2018-02-17T05:11:11.441Z,16.60
2018-02-17T05:13:45.237Z,17.67
2018-02-17T05:19:29.247Z,16.80
2018-02-17T05:22:14.323Z,16.83
2018-02-17T05:27:52.171Z,18.23
2018-02-17T05:30:26.955Z,18.37
2018-02-17T05:33:01.659Z,18.57
2018-02-17T05:35:38.417Z,16.47
2018-02-17T05:38:12.512Z,16.13
2018-02-17T05:41:03.101Z,15.30
2018-02-17T05:43:37.443Z,18.87
2018-02-17T05:46:16.732Z,18.70
2018-02-17T05:48:51.242Z,18.40
2018-02-17T05:51:27.214Z,20.13
2018-02-17T05:54:01.423Z,19.07
2018-02-17T05:56:35.827Z,18.80
2018-02-17T05:59:09.817Z,19.53
2018-02-17T06:01:43.656Z,17.73
2018-02-17T06:04:18.326Z,18.37
2018-02-17T06:06:52.932Z,18.47
2018-02-17T06:09:26.893Z,19.27
2018-02-17T06:12:01.368Z,19.90
2018-02-17T06:14:35.312Z,19.37
2018-02-17T06:17:09.163Z,18.87
2018-02-17T06:19:43.030Z,21.33
2018-02-17T06:22:16.753Z,20.80
2018-02-17T06:24:50.494Z,18.57
2018-02-17T06:27:24.746Z,19.30
2018-02-17T06:29:58.671Z,19.80
2018-02-17T06:32:32.325Z,20.13
2018-02-17T06:35:06.207Z,20.30
2018-02-17T06:37:40.022Z,19.97
2018-02-17T06:40:13.968Z,20.07
2018-02-17T06:42:48.491Z,19.87
2018-02-17T06:45:22.239Z,20.27
2018-02-17T06:47:56.089Z,21.10
2018-02-17T06:50:30.063Z,21.80
2018-02-17T06:53:03.883Z,19.60
2018-02-17T06:55:38.446Z,20.73
2018-02-17T06:58:12.535Z,19.90
2018-02-17T07:00:46.343Z,20.63
2018-02-17T07:03:19.911Z,22.17
2018-02-17T07:05:54.454Z,20.90
2018-02-17T07:08:28.344Z,21.50
2018-02-17T07:11:02.723Z,19.73
2018-02-17T07:13:36.975Z,20.57
2018-02-17T07:16:12.037Z,22.10
2018-02-17T07:18:46.355Z,21.10
2018-02-17T07:21:20.805Z,21.10
2018-02-17T07:23:54.839Z,21.27
2018-02-17T07:26:28.475Z,30.00
2018-02-17T07:29:02.225Z,20.47
2018-02-17T07:31:36.079Z,21.50
2018-02-17T07:34:09.896Z,19.53
2018-02-17T07:36:43.629Z,18.60
2018-02-17T07:39:17.505Z,19.50
2018-02-17T07:41:51.179Z,19.90
2018-02-17T07:44:24.892Z,19.20
2018-02-17T07:46:58.663Z,19.23
2018-02-17T07:49:32.495Z,21.17
2018-02-17T07:52:06.568Z,20.50
2018-02-17T07:54:40.378Z,20.33
2018-02-17T07:57:14.143Z,19.97
2018-02-17T07:59:48.708Z,19.97
2018-02-17T08:02:23.170Z,20.47
2018-02-17T08:04:57.384Z,20.73
2018-02-17T08:07:31.820Z,19.90
2018-02-17T08:10:06.681Z,22.10
2018-02-17T08:12:40.868Z,19.27
2018-02-17T08:15:14.638Z,19.90
2018-02-17T08:17:49.288Z,18.40
2018-02-17T08:20:23.326Z,20.10
2018-02-17T08:22:57.068Z,20.80
2018-02-17T08:25:31.580Z,21.23
2018-02-17T08:28:05.758Z,23.43
2018-02-17T08:30:40.293Z,18.77
2018-02-17T08:33:14.296Z,21.00
2018-02-17T08:35:47.979Z,20.13
2018-02-17T08:38:21.890Z,20.50
2018-02-17T08:40:55.829Z,21.57
2018-02-17T08:43:30.410Z,21.60
2018-02-17T08:46:04.324Z,19.77
2018-02-17T08:48:38.242Z,20.80
2018-02-17T08:51:12.860Z,22.80
2018-02-17T08:53:46.836Z,22.70
2018-02-17T08:56:20.545Z,22.07
2018-02-17T08:58:54.385Z,23.20
2018-02-17T09:01:28.583Z,21.00
2018-02-17T09:04:03.251Z,21.03
2018-02-17T09:06:38.385Z,23.37
2018-02-17T09:09:12.463Z,22.23
2018-02-17T09:11:46.958Z,22.13
2018-02-17T09:14:21.081Z,21.90
2018-02-17T09:16:54.906Z,22.73
2018-02-17T09:19:28.702Z,22.30
2018-02-17T09:22:02.496Z,23.83
2018-02-17T09:24:36.343Z,22.30
2018-02-17T09:27:10.771Z,23.30
2018-02-17T09:29:45.607Z,22.17
2018-02-17T09:32:20.529Z,24.07
2018-02-17T09:34:54.740Z,23.80
2018-02-17T09:37:29.052Z,23.10
2018-02-17T09:40:03.133Z,23.53
2018-02-17T09:42:37.156Z,23.80
2018-02-17T09:45:11.456Z,22.33
2018-02-17T09:47:46.144Z,22.70
2018-02-17T09:50:20.337Z,21.30
2018-02-17T09:52:54.128Z,21.03
2018-02-17T09:55:27.807Z,21.57
2018-02-17T09:58:01.450Z,21.73
2018-02-17T10:00:35.011Z,21.47
2018-02-17T10:03:08.997Z,19.60
2018-02-17T10:05:43.020Z,19.40
2018-02-17T10:08:16.801Z,22.50
2018-02-17T10:10:50.592Z,19.93
2018-02-17T10:13:24.446Z,21.97
2018-02-17T10:15:58.327Z,21.37
2018-02-17T10:18:32.119Z,21.03
2018-02-17T10:21:05.934Z,19.30
2018-02-17T10:23:39.869Z,19.87
2018-02-17T10:26:13.925Z,19.97
2018-02-17T10:28:47.436Z,21.43
2018-02-17T10:31:21.253Z,21.10
2018-02-17T10:33:55.093Z,19.83
2018-02-17T10:36:28.908Z,21.10
2018-02-17T10:39:03.463Z,20.40
2018-02-17T10:41:37.527Z,20.40
2018-02-17T10:44:11.344Z,19.70
2018-02-17T10:46:45.323Z,21.47
2018-02-17T10:49:19.132Z,18.80
2018-02-17T10:51:52.943Z,19.10
2018-02-17T10:54:26.639Z,21.80
2018-02-17T10:57:01.063Z,20.77
2018-02-17T10:59:35.019Z,19.43
2018-02-17T11:02:09.594Z,19.17
2018-02-17T11:04:43.468Z,21.10
2018-02-17T11:07:17.908Z,18.73
2018-02-17T11:09:51.834Z,19.03
2018-02-17T11:12:25.619Z,19.10
2018-02-17T11:14:59.512Z,17.70
2018-02-17T11:17:34.148Z,20.90
2018-02-17T11:20:09.069Z,20.17
2018-02-17T11:22:43.231Z,19.27
2018-02-17T11:25:17.144Z,19.57
2018-02-17T11:27:51.199Z,19.60
2018-02-17T11:30:24.904Z,22.60
2018-02-17T11:32:58.747Z,22.00
2018-02-17T11:35:32.867Z,20.67
2018-02-17T11:38:07.759Z,22.40
2018-02-17T11:40:42.759Z,22.27
2018-02-17T11:43:16.616Z,20.07
2018-02-17T11:45:51.235Z,20.23
2018-02-17T11:48:25.502Z,20.17
2018-02-17T11:50:59.529Z,20.13
2018-02-17T11:53:34.096Z,22.77
2018-02-17T11:56:08.052Z,20.60
2018-02-17T11:58:42.732Z,21.27
2018-02-17T12:01:16.997Z,21.27
2018-02-17T12:03:50.824Z,17.30
2018-02-17T12:06:24.596Z,17.23
2018-02-17T12:08:58.516Z,18.00
2018-02-17T12:11:32.443Z,18.80
2018-02-17T12:14:06.185Z,16.60
2018-02-17T12:16:40.710Z,18.67
2018-02-17T12:19:14.825Z,15.47
2018-02-17T12:21:48.565Z,18.63
2018-02-17T12:24:22.259Z,17.97
2018-02-17T12:26:55.927Z,16.37
2018-02-17T12:29:29.812Z,17.63
2018-02-17T12:32:04.325Z,16.10
2018-02-17T12:34:38.090Z,17.97
2018-02-17T12:37:11.932Z,18.67
2018-02-17T12:39:45.652Z,18.17
2018-02-17T12:42:19.558Z,18.60
2018-02-17T12:44:53.452Z,19.27
2018-02-17T12:47:27.265Z,22.00
2018-02-17T12:50:02.010Z,19.93
2018-02-17T12:52:36.200Z,18.70
2018-02-17T12:55:10.117Z,19.30
2018-02-17T12:57:43.824Z,18.97
2018-02-17T13:00:17.544Z,17.13
2018-02-17T13:02:51.579Z,20.60
2018-02-17T13:05:25.150Z,17.47
2018-02-17T13:07:59.008Z,17.70
2018-02-17T13:10:33.019Z,16.40
2018-02-17T13:13:07.786Z,17.93
2018-02-17T13:15:42.641Z,16.30
2018-02-17T13:18:17.451Z,14.50
2018-02-17T13:20:51.499Z,15.83
2018-02-17T13:23:25.413Z,17.50
2018-02-17T13:25:59.187Z,15.83
2018-02-17T13:28:32.889Z,18.30
2018-02-17T13:31:07.428Z,23.27
2018-02-17T13:33:41.437Z,22.00
2018-02-17T13:36:15.923Z,16.77
2018-02-17T13:38:50.091Z,21.50
2018-02-17T13:41:24.053Z,21.17
2018-02-17T13:43:58.510Z,15.33
2018-02-17T13:46:32.392Z,15.20
2018-02-17T13:49:06.905Z,14.97
2018-02-17T13:51:40.951Z,14.07
2018-02-17T13:54:14.807Z,14.70
2018-02-17T13:56:48.544Z,14.10
2018-02-17T13:59:22.544Z,13.27
2018-02-17T14:01:57.152Z,13.23
2018-02-17T14:04:32.184Z,13.77
2018-02-17T14:07:07.042Z,13.70
2018-02-17T14:09:41.264Z,12.67
2018-02-17T14:12:14.944Z,13.77
2018-02-17T14:14:48.786Z,13.70
2018-02-17T14:17:23.388Z,14.10
2018-02-17T14:19:57.652Z,12.33
2018-02-17T14:22:31.565Z,14.07
2018-02-17T14:25:05.804Z,11.93
2018-02-17T14:27:40.269Z,12.83
2018-02-17T14:30:14.276Z,14.13
2018-02-17T14:32:48.036Z,11.27
2018-02-17T14:35:21.808Z,11.17
2018-02-17T14:37:56.367Z,11.27
2018-02-17T14:40:30.466Z,11.80
2018-02-17T14:43:04.179Z,13.80
2018-02-17T14:45:37.833Z,17.83
2018-02-17T14:48:11.689Z,12.47
2018-02-17T14:50:46.137Z,13.53
2018-02-17T14:53:20.179Z,12.93
2018-02-17T14:55:54.748Z,12.07
2018-02-17T14:58:29.574Z,13.13
2018-02-17T15:01:03.630Z,11.43
2018-02-17T15:03:37.405Z,11.60
2018-02-17T15:06:11.077Z,11.67
2018-02-17T15:08:45.719Z,10.07
2018-02-17T15:11:19.885Z,11.23
2018-02-17T15:13:53.726Z,11.67
2018-02-17T15:16:28.476Z,11.00
2018-02-17T15:19:03.621Z,11.73
2018-02-17T15:21:37.749Z,10.80
2018-02-17T15:24:11.769Z,12.27
2018-02-17T15:26:46.353Z,12.07
2018-02-17T15:29:21.321Z,11.20
2018-02-17T15:31:55.435Z,11.80
2018-02-17T15:34:29.519Z,17.60
2018-02-17T15:37:03.253Z,22.50
2018-02-17T15:39:36.985Z,16.63
2018-02-17T15:42:10.824Z,13.10
2018-02-17T15:44:44.660Z,15.33
2018-02-17T15:47:18.490Z,18.63
2018-02-17T15:49:52.266Z,15.90
2018-02-17T15:52:25.945Z,12.43
2018-02-17T15:54:59.635Z,9.93
2018-02-17T15:57:34.120Z,10.70
2018-02-17T16:00:07.827Z,16.33
2018-02-17T16:02:42.352Z,16.40
2018-02-17T16:05:16.313Z,14.20
2018-02-17T16:07:50.153Z,22.47
2018-02-17T16:10:23.748Z,21.90
2018-02-17T16:12:57.462Z,29.43
2018-02-17T16:15:31.158Z,16.70
2018-02-17T16:18:04.820Z,13.13
2018-02-17T16:20:38.635Z,20.33
2018-02-17T16:23:12.816Z,14.10
2018-02-17T16:25:47.392Z,17.80
2018-02-17T16:28:21.313Z,20.07
2018-02-17T16:30:55.143Z,16.83
2018-02-17T16:33:29.847Z,24.75
2018-02-17T16:36:04.765Z,48.83
2018-02-17T16:38:39.535Z,10.93
2018-02-17T16:41:13.479Z,12.13
2018-02-17T16:43:47.311Z,12.90
2018-02-17T16:46:21.103Z,14.87
2018-02-17T16:48:55.029Z,25.80
2018-02-17T16:51:28.860Z,12.43
2018-02-17T16:54:03.538Z,12.30
2018-02-17T16:56:38.568Z,13.77
2018-02-17T16:59:12.431Z,12.00
2018-02-17T17:01:46.561Z,11.23
2018-02-17T17:04:20.847Z,10.77
2018-02-17T17:06:55.232Z,11.70
2018-02-17T17:09:29.898Z,13.63
2018-02-17T17:12:03.915Z,12.70
2018-02-17T17:14:37.822Z,11.60
2018-02-17T17:17:11.641Z,16.47
2018-02-17T17:19:45.536Z,12.70
2018-02-17T17:22:19.453Z,10.90
2018-02-17T17:24:54.136Z,11.50
2018-02-17T17:27:28.359Z,12.67
2018-02-17T17:30:02.203Z,11.87
2018-02-17T17:32:35.884Z,13.50
2018-02-17T17:35:10.460Z,14.30
2018-02-17T17:37:45.223Z,13.00
2018-02-17T17:40:19.402Z,18.50
2018-02-17T17:42:53.959Z,15.97
2018-02-17T17:45:29.098Z,18.73
2018-02-17T17:48:03.356Z,21.70
2018-02-17T17:50:37.108Z,19.87
2018-02-17T17:53:11.809Z,17.97
2018-02-17T17:55:45.870Z,22.30
2018-02-17T17:58:19.788Z,22.87
2018-02-17T18:00:54.285Z,20.00
2018-02-17T18:03:28.386Z,26.40
2018-02-17T18:06:02.140Z,24.40
2018-02-17T18:08:35.731Z,18.70
2018-02-17T18:11:09.522Z,26.77
2018-02-17T18:13:43.695Z,19.53
2018-02-17T18:16:18.304Z,12.67
2018-02-17T18:18:52.085Z,22.90
2018-02-17T18:21:25.762Z,24.53
2018-02-17T18:24:00.353Z,28.00
2018-02-17T18:26:34.569Z,19.37
2018-02-17T18:29:08.648Z,12.67
2018-02-17T18:31:43.306Z,15.60
2018-02-17T18:34:17.362Z,10.50
2018-02-17T18:36:51.159Z,8.03
2018-02-17T18:39:25.024Z,7.80
2018-02-17T18:41:58.676Z,11.70
2018-02-17T18:44:32.554Z,11.90
2018-02-17T18:47:07.013Z,18.87
2018-02-17T18:49:41.503Z,8.80
2018-02-17T18:52:15.422Z,8.57
2018-02-17T18:54:49.044Z,8.37
2018-02-17T18:57:22.817Z,8.87
2018-02-17T18:59:56.570Z,8.73
2018-02-17T19:02:30.231Z,9.37
2018-02-17T19:05:04.079Z,8.30
2018-02-17T19:07:39.039Z,8.77
2018-02-17T19:10:12.615Z,9.40
2018-02-17T19:12:47.164Z,7.17
2018-02-17T19:15:21.363Z,7.27
2018-02-17T20:01:43.446Z,6.60
2018-02-17T20:04:17.781Z,6.90
2018-02-17T20:06:51.761Z,5.73
2018-02-17T20:09:25.788Z,7.37
2018-02-17T20:11:59.988Z,6.60
2018-02-17T20:14:34.512Z,6.70
2018-02-17T20:17:08.537Z,7.47
2018-02-17T20:19:42.404Z,7.60
2018-02-17T20:22:16.235Z,7.97
2018-02-17T20:24:49.875Z,7.33
2018-02-17T20:27:23.649Z,8.27
2018-02-17T20:29:57.195Z,8.73
2018-02-17T20:32:30.836Z,7.97
2018-02-17T20:35:04.749Z,8.43
2018-02-17T20:37:38.655Z,7.30
2018-02-17T20:40:13.084Z,6.60
2018-02-17T20:42:47.112Z,7.43
2018-02-17T20:45:21.600Z,7.20
2018-02-17T20:47:55.651Z,8.17
2018-02-17T20:50:29.325Z,8.07
2018-02-17T20:53:03.131Z,16.57
2018-02-17T20:55:36.869Z,8.00
2018-02-17T20:58:11.472Z,7.17
2018-02-17T21:00:45.348Z,7.60
2018-02-17T21:03:19.872Z,35.60
2018-02-17T21:05:53.784Z,8.87
2018-02-17T21:08:27.621Z,7.00
2018-02-17T21:11:01.502Z,7.17
2018-02-17T21:13:36.201Z,7.20
2018-02-17T21:16:10.239Z,7.23
2018-02-17T21:18:43.891Z,8.73
2018-02-17T21:21:17.591Z,8.23
2018-02-17T21:23:52.045Z,7.07
2018-02-17T21:26:26.804Z,7.90
2018-02-17T21:29:01.420Z,7.37
2018-02-17T21:31:35.569Z,6.90
2018-02-17T21:34:10.731Z,6.00
2018-02-17T21:39:25.377Z,6.13
2018-02-17T21:42:00.072Z,6.00
2018-02-17T21:44:34.028Z,6.63
2018-02-17T21:47:07.780Z,6.73
2018-02-17T21:49:41.453Z,6.90
2018-02-17T21:52:15.049Z,6.37
2018-02-17T21:54:48.844Z,7.10
2018-02-17T21:57:22.432Z,6.80
2018-02-17T21:59:56.130Z,6.63
2018-02-17T22:02:29.824Z,6.00
2018-02-17T22:05:03.523Z,6.33
2018-02-17T22:07:37.172Z,5.77
2018-02-17T22:10:11.628Z,6.20
2018-02-17T22:12:45.387Z,6.40
2018-02-17T22:15:19.056Z,7.00
2018-02-17T22:17:53.797Z,6.53
2018-02-17T22:20:27.399Z,6.50
2018-02-17T22:23:02.016Z,6.50
2018-02-17T22:25:35.794Z,6.50
2018-02-17T22:28:09.412Z,7.30
2018-02-17T22:30:43.192Z,7.23
2018-02-17T22:33:16.829Z,6.70
2018-02-17T22:35:50.618Z,8.70
2018-02-17T22:38:24.509Z,7.23
2018-02-17T22:40:58.148Z,7.17
2018-02-17T22:43:31.908Z,7.30
2018-02-17T22:46:06.419Z,7.83
2018-02-17T22:48:40.164Z,7.80
2018-02-17T22:51:14.027Z,8.30
2018-02-17T22:53:47.784Z,9.20
2018-02-17T22:56:21.599Z,8.23
2018-02-17T22:58:55.241Z,7.93
2018-02-17T23:01:28.984Z,8.30
2018-02-17T23:04:02.680Z,8.70
2018-02-17T23:06:36.417Z,8.87
2018-02-17T23:09:10.085Z,9.57
2018-02-17T23:11:44.499Z,8.37
2018-02-17T23:14:19.112Z,8.83
2018-02-17T23:16:53.053Z,9.00
2018-02-17T23:19:26.812Z,9.97
2018-02-17T23:22:00.592Z,8.80
2018-02-17T23:24:34.427Z,8.10
2018-02-17T23:27:08.192Z,9.37
2018-02-17T23:29:41.839Z,10.67
2018-02-17T23:32:16.264Z,9.50
2018-02-17T23:34:50.128Z,9.40
2018-02-17T23:37:24.123Z,8.37
2018-02-17T23:39:58.048Z,9.43
2018-02-17T23:42:32.643Z,8.40
2018-02-17T23:45:06.728Z,8.27
2018-02-17T23:47:40.498Z,8.50
2018-02-17T23:50:14.283Z,9.00
2018-02-17T23:52:47.927Z,8.10
2018-02-17T23:55:21.739Z,8.87
2018-02-17T23:57:55.562Z,9.13
